createdAt,value
2018-08-12T00:00:57.271Z,0
2018-08-12T00:01:57.008Z,0
2018-08-12T00:02:57.267Z,0
2018-08-12T00:03:56.996Z,0
2018-08-12T00:04:56.993Z,0
2018-08-12T00:05:57.240Z,0
2018-08-12T00:06:57.269Z,0
2018-08-12T00:07:57.475Z,0
2018-08-12T00:08:57.234Z,0
2018-08-12T00:09:57.210Z,0
2018-08-12T00:10:56.961Z,0
2018-08-12T00:11:57.258Z,0
2018-08-12T00:12:57.228Z,0
2018-08-12T00:13:57.190Z,0
2018-08-12T00:14:56.924Z,0
2018-08-12T00:15:57.170Z,0
2018-08-12T00:16:56.914Z,0
2018-08-12T00:17:57.162Z,0
2018-08-12T00:18:56.904Z,0
2018-08-12T00:19:57.149Z,0
2018-08-12T00:20:57.136Z,0
2018-08-12T00:21:57.129Z,0
2018-08-12T00:22:57.121Z,0
2018-08-12T00:23:57.116Z,0
2018-08-12T00:24:57.113Z,0
2018-08-12T00:25:57.104Z,0
2018-08-12T00:26:56.844Z,0
2018-08-12T00:27:57.099Z,0
2018-08-12T00:28:57.087Z,0
2018-08-12T00:29:56.873Z,0
2018-08-12T00:30:57.072Z,0
2018-08-12T00:31:57.068Z,0
2018-08-12T00:32:57.061Z,0
2018-08-12T00:33:57.050Z,0
2018-08-12T00:34:57.041Z,0
2018-08-12T00:35:57.048Z,0
2018-08-12T00:36:57.034Z,0
2018-08-12T00:37:56.777Z,0
2018-08-12T00:38:57.263Z,0
2018-08-12T00:39:56.765Z,0
2018-08-12T00:40:57.002Z,0
2018-08-12T00:41:56.997Z,0
2018-08-12T00:42:56.989Z,0
2018-08-12T00:43:56.979Z,0
2018-08-12T00:44:56.974Z,0
2018-08-12T00:45:56.724Z,0
2018-08-12T00:46:56.958Z,0
2018-08-12T00:47:56.960Z,0
2018-08-12T00:48:56.957Z,0
2018-08-12T00:49:56.939Z,0
2018-08-12T00:50:56.681Z,0
2018-08-12T00:51:56.929Z,0
2018-08-12T00:52:56.935Z,0
2018-08-12T00:53:56.911Z,0
2018-08-12T00:54:56.911Z,0
2018-08-12T00:55:56.652Z,0
2018-08-12T00:56:56.643Z,0
2018-08-12T00:57:56.915Z,0
2018-08-12T00:58:56.888Z,0
2018-08-12T00:59:56.883Z,0
2018-08-12T01:00:56.865Z,0
2018-08-12T01:01:56.864Z,0
2018-08-12T01:02:56.599Z,0
2018-08-12T01:03:56.851Z,0
2018-08-12T01:04:56.844Z,0
2018-08-12T01:05:56.830Z,0
2018-08-12T01:06:56.823Z,0
2018-08-12T01:07:56.815Z,0
2018-08-12T01:08:56.812Z,0
2018-08-12T01:09:56.804Z,0
2018-08-12T01:10:56.795Z,0
2018-08-12T01:11:56.800Z,0
2018-08-12T01:12:56.529Z,0
2018-08-12T01:13:56.525Z,0
2018-08-12T01:14:56.770Z,0
2018-08-12T01:15:56.771Z,0
2018-08-12T01:16:56.756Z,0
2018-08-12T01:17:56.746Z,0
2018-08-12T01:18:56.492Z,0
2018-08-12T01:19:56.482Z,0
2018-08-12T01:20:56.726Z,0
2018-08-12T01:21:56.721Z,0
2018-08-12T01:22:56.726Z,0
2018-08-12T01:23:56.722Z,0
2018-08-12T01:24:56.468Z,0
2018-08-12T01:25:56.695Z,0
2018-08-12T01:26:56.433Z,0
2018-08-12T01:27:56.688Z,0
2018-08-12T01:28:56.676Z,0
2018-08-12T01:29:56.412Z,0
2018-08-12T01:30:56.659Z,0
2018-08-12T01:31:56.402Z,0
2018-08-12T01:32:56.647Z,0
2018-08-12T01:33:56.639Z,0
2018-08-12T01:34:56.632Z,0
2018-08-12T01:35:56.832Z,0
2018-08-12T01:36:56.364Z,0
2018-08-12T01:37:56.610Z,0
2018-08-12T01:38:56.355Z,0
2018-08-12T01:39:56.604Z,0
2018-08-12T01:40:56.600Z,0
2018-08-12T01:41:56.579Z,0
2018-08-12T01:42:56.574Z,0
2018-08-12T01:43:56.570Z,0
2018-08-12T01:44:56.316Z,0
2018-08-12T01:45:56.554Z,0
2018-08-12T01:46:56.545Z,0
2018-08-12T01:47:56.542Z,0
2018-08-12T01:48:56.549Z,0
2018-08-12T01:49:56.525Z,0
2018-08-12T01:50:56.536Z,0
2018-08-12T01:51:56.262Z,0
2018-08-12T01:52:56.502Z,0
2018-08-12T01:53:56.252Z,0
2018-08-12T01:54:56.489Z,0
2018-08-12T01:55:56.479Z,0
2018-08-12T01:56:56.223Z,0
2018-08-12T01:57:56.474Z,0
2018-08-12T01:58:56.223Z,0
2018-08-12T01:59:56.207Z,0
2018-08-12T02:00:56.195Z,0
2018-08-12T02:01:56.441Z,0
2018-08-12T02:02:56.188Z,0
2018-08-12T02:03:56.429Z,0
2018-08-12T02:04:56.421Z,0
2018-08-12T02:05:56.409Z,0
2018-08-12T02:06:56.402Z,0
2018-08-12T02:07:56.396Z,0
2018-08-12T02:08:56.389Z,0
2018-08-12T02:09:56.384Z,0
2018-08-12T02:10:56.373Z,0
2018-08-12T02:11:56.119Z,0
2018-08-12T02:12:56.615Z,0
2018-08-12T02:13:56.355Z,0
2018-08-12T02:14:56.350Z,0
2018-08-12T02:15:56.093Z,0
2018-08-12T02:16:56.337Z,0
2018-08-12T02:17:56.327Z,0
2018-08-12T02:18:56.318Z,0
2018-08-12T02:19:56.065Z,0
2018-08-12T02:20:56.307Z,0
2018-08-12T02:21:56.303Z,0
2018-08-12T02:22:56.289Z,0
2018-08-12T02:23:56.287Z,0
2018-08-12T02:24:56.280Z,0
2018-08-12T02:25:56.284Z,0
2018-08-12T02:26:56.271Z,0
2018-08-12T02:27:56.006Z,0
2018-08-12T02:28:55.993Z,0
2018-08-12T02:29:56.240Z,0
2018-08-12T02:30:56.236Z,0
2018-08-12T02:31:55.979Z,0
2018-08-12T02:32:55.982Z,0
2018-08-12T02:33:55.966Z,0
2018-08-12T02:34:56.207Z,0
2018-08-12T02:35:55.959Z,0
2018-08-12T02:36:55.944Z,0
2018-08-12T02:37:56.181Z,0
2018-08-12T02:38:56.180Z,0
2018-08-12T02:39:56.168Z,0
2018-08-12T02:40:56.165Z,0
2018-08-12T02:41:55.658Z,0
2018-08-12T02:42:55.899Z,0
2018-08-12T02:43:56.402Z,0
2018-08-12T02:44:55.882Z,0
2018-08-12T02:45:56.129Z,0
2018-08-12T02:46:56.191Z,0
2018-08-12T02:47:55.868Z,0
2018-08-12T02:48:56.106Z,0
2018-08-12T02:49:55.852Z,0
2018-08-12T02:50:56.092Z,0
2018-08-12T02:51:56.090Z,0
2018-08-12T02:52:56.077Z,0
2018-08-12T02:53:56.067Z,0
2018-08-12T02:54:56.077Z,0
2018-08-12T02:55:56.105Z,0
2018-08-12T02:56:56.055Z,0
2018-08-12T02:57:55.792Z,0
2018-08-12T02:58:56.042Z,0
2018-08-12T02:59:56.024Z,4
2018-08-12T03:00:56.019Z,4
2018-08-12T03:01:55.767Z,0
2018-08-12T03:02:56.010Z,4
2018-08-12T03:03:55.992Z,4
2018-08-12T03:04:55.999Z,0
2018-08-12T03:05:55.742Z,4
2018-08-12T03:06:55.974Z,4
2018-08-12T03:07:55.968Z,8
2018-08-12T03:08:55.706Z,4
2018-08-12T03:09:55.955Z,8
2018-08-12T03:10:55.951Z,8
2018-08-12T03:11:55.949Z,8
2018-08-12T03:12:55.681Z,12
2018-08-12T03:13:55.965Z,12
2018-08-12T03:14:56.169Z,16
2018-08-12T03:15:55.914Z,20
2018-08-12T03:16:55.659Z,20
2018-08-12T03:17:55.899Z,20
2018-08-12T03:18:55.884Z,24
2018-08-12T03:19:55.627Z,28
2018-08-12T03:20:55.374Z,32
2018-08-12T03:21:55.615Z,36
2018-08-12T03:22:55.864Z,40
2018-08-12T03:23:55.601Z,48
2018-08-12T03:24:55.848Z,52
2018-08-12T03:25:55.586Z,60
2018-08-12T03:26:55.824Z,68
2018-08-12T03:27:55.570Z,76
2018-08-12T03:28:55.560Z,88
2018-08-12T03:29:55.902Z,96
2018-08-12T03:30:55.804Z,112
2018-08-12T03:31:55.802Z,120
2018-08-12T03:32:55.792Z,136
2018-08-12T03:33:55.780Z,152
2018-08-12T03:34:55.768Z,172
2018-08-12T03:35:55.520Z,188
2018-08-12T03:36:55.507Z,208
2018-08-12T03:37:55.745Z,232
2018-08-12T03:38:55.485Z,260
2018-08-12T03:39:55.731Z,284
2018-08-12T03:40:55.722Z,320
2018-08-12T03:41:55.213Z,352
2018-08-12T03:42:55.457Z,392
2018-08-12T03:43:55.706Z,428
2018-08-12T03:44:55.442Z,464
2018-08-12T03:45:55.945Z,504
2018-08-12T03:46:55.680Z,544
2018-08-12T03:47:55.674Z,584
2018-08-12T03:48:55.547Z,624
2018-08-12T03:49:55.158Z,676
2018-08-12T03:50:55.651Z,728
2018-08-12T03:51:55.649Z,784
2018-08-12T03:52:55.644Z,848
2018-08-12T03:53:55.642Z,920
2018-08-12T03:54:55.633Z,1004
2018-08-12T03:55:55.368Z,1100
2018-08-12T03:56:55.613Z,1192
2018-08-12T03:57:55.603Z,1296
2018-08-12T03:58:55.623Z,1400
2018-08-12T03:59:55.606Z,1512
2018-08-12T04:00:55.332Z,1624
2018-08-12T04:01:55.325Z,1732
2018-08-12T04:02:55.568Z,1844
2018-08-12T04:03:55.562Z,1944
2018-08-12T04:04:55.053Z,2024
2018-08-12T04:05:55.298Z,2104
2018-08-12T04:06:55.548Z,2184
2018-08-12T04:07:55.327Z,2260
2018-08-12T04:08:55.537Z,2340
2018-08-12T04:09:55.269Z,2424
2018-08-12T04:10:55.267Z,2532
2018-08-12T04:11:55.512Z,2648
2018-08-12T04:12:55.251Z,2704
2018-08-12T04:13:55.499Z,2820
2018-08-12T04:14:55.244Z,2932
2018-08-12T04:15:55.240Z,2956
2018-08-12T04:16:55.476Z,2996
2018-08-12T04:17:55.475Z,3032
2018-08-12T04:18:55.747Z,3068
2018-08-12T04:19:54.959Z,3224
2018-08-12T04:20:55.453Z,3608
2018-08-12T04:21:54.942Z,3860
2018-08-12T04:22:55.447Z,3864
2018-08-12T04:23:55.440Z,3820
2018-08-12T04:24:55.177Z,3668
2018-08-12T04:25:55.420Z,3444
2018-08-12T04:26:55.430Z,3196
2018-08-12T04:27:55.157Z,3172
2018-08-12T04:28:55.405Z,3212
2018-08-12T04:29:55.413Z,3384
2018-08-12T04:30:55.393Z,3724
2018-08-12T04:31:55.391Z,4172
2018-08-12T04:32:55.381Z,4616
2018-08-12T04:33:55.377Z,5132
2018-08-12T04:34:55.126Z,5564
2018-08-12T04:35:55.366Z,6296
2018-08-12T04:36:55.111Z,6632
2018-08-12T04:37:55.356Z,6788
2018-08-12T04:38:55.099Z,6628
2018-08-12T04:39:55.345Z,7252
2018-08-12T04:40:55.346Z,7660
2018-08-12T04:41:55.090Z,7968
2018-08-12T04:42:55.333Z,8144
2018-08-12T04:43:55.079Z,8356
2018-08-12T04:44:55.330Z,8648
2018-08-12T04:45:55.396Z,8776
2018-08-12T04:46:55.067Z,8840
2018-08-12T04:47:55.065Z,9120
2018-08-12T04:48:55.564Z,9128
2018-08-12T04:49:55.063Z,9444
2018-08-12T04:50:55.055Z,9932
2018-08-12T04:51:55.303Z,9600
2018-08-12T04:52:55.297Z,10304
2018-08-12T04:53:55.044Z,10280
2018-08-12T04:54:55.295Z,10088
2018-08-12T04:55:55.297Z,11348
2018-08-12T04:56:55.040Z,11440
2018-08-12T04:57:55.294Z,11128
2018-08-12T04:58:55.036Z,12468
2018-08-12T04:59:55.036Z,11528
2018-08-12T05:00:55.041Z,11964
2018-08-12T05:01:55.288Z,12368
2018-08-12T05:02:55.285Z,12896
2018-08-12T05:03:55.286Z,12724
2018-08-12T05:04:55.286Z,12064
2018-08-12T05:05:55.040Z,12912
2018-08-12T05:06:55.037Z,13020
2018-08-12T05:07:55.296Z,12400
2018-08-12T05:08:55.296Z,12676
2018-08-12T05:09:55.042Z,12944
2018-08-12T05:10:55.293Z,12960
2018-08-12T05:11:55.289Z,12916
2018-08-12T05:12:55.042Z,13104
2018-08-12T05:13:55.049Z,13520
2018-08-12T05:14:55.301Z,13724
2018-08-12T05:15:55.312Z,13500
2018-08-12T05:16:54.802Z,13328
2018-08-12T05:17:54.804Z,13512
2018-08-12T05:18:55.309Z,13556
2018-08-12T05:19:55.312Z,13888
2018-08-12T05:20:55.065Z,14208
2018-08-12T05:21:55.323Z,14976
2018-08-12T05:22:55.377Z,14528
2018-08-12T05:23:55.338Z,13792
2018-08-12T05:24:55.353Z,14688
2018-08-12T05:25:54.837Z,15936
2018-08-12T05:26:55.348Z,16288
2018-08-12T05:27:55.351Z,16352
2018-08-12T05:28:55.358Z,15808
2018-08-12T05:29:55.116Z,17632
2018-08-12T05:30:55.366Z,19840
2018-08-12T05:31:54.866Z,19936
2018-08-12T05:32:55.378Z,19264
2018-08-12T05:33:55.171Z,19968
2018-08-12T05:34:55.134Z,20896
2018-08-12T05:35:55.395Z,20736
2018-08-12T05:36:54.646Z,16768
2018-08-12T05:37:55.154Z,22592
2018-08-12T05:38:55.416Z,22240
2018-08-12T05:39:54.914Z,19744
2018-08-12T05:40:55.174Z,21088
2018-08-12T05:41:55.179Z,23904
2018-08-12T05:42:55.437Z,21856
2018-08-12T05:43:55.446Z,18784
2018-08-12T05:44:55.202Z,21024
2018-08-12T05:45:55.464Z,26144
2018-08-12T05:46:55.466Z,25920
2018-08-12T05:47:55.231Z,25728
2018-08-12T05:48:55.483Z,26208
2018-08-12T05:49:55.241Z,27264
2018-08-12T05:50:55.809Z,28192
2018-08-12T05:51:55.507Z,28480
2018-08-12T05:52:55.512Z,22656
2018-08-12T05:53:55.523Z,25984
2018-08-12T05:54:55.532Z,25536
2018-08-12T05:55:55.543Z,25824
2018-08-12T05:56:55.299Z,28320
2018-08-12T05:57:55.562Z,30016
2018-08-12T05:58:55.567Z,28864
2018-08-12T05:59:55.578Z,28352
2018-08-12T06:00:55.581Z,25440
2018-08-12T06:01:55.338Z,25504
2018-08-12T06:02:56.032Z,23808
2018-08-12T06:03:55.611Z,24640
2018-08-12T06:04:55.621Z,25920
2018-08-12T06:05:55.629Z,24192
2018-08-12T06:06:55.651Z,26048
2018-08-12T06:07:55.655Z,32224
2018-08-12T06:08:55.646Z,31776
2018-08-12T06:09:55.412Z,31424
2018-08-12T06:10:55.675Z,32864
2018-08-12T06:11:55.683Z,36320
2018-08-12T06:12:55.692Z,37856
2018-08-12T06:13:55.719Z,34720
2018-08-12T06:14:55.459Z,31584
2018-08-12T06:15:55.727Z,30144
2018-08-12T06:16:55.494Z,29600
2018-08-12T06:17:55.750Z,30304
2018-08-12T06:18:55.762Z,29920
2018-08-12T06:19:55.762Z,30432
2018-08-12T06:20:55.771Z,28000
2018-08-12T06:21:56.028Z,28096
2018-08-12T06:22:55.800Z,28544
2018-08-12T06:23:55.802Z,32096
2018-08-12T06:24:55.565Z,31744
2018-08-12T06:25:55.654Z,24384
2018-08-12T06:26:55.832Z,34944
2018-08-12T06:27:55.843Z,35200
2018-08-12T06:28:55.602Z,34240
2018-08-12T06:29:55.869Z,34688
2018-08-12T06:30:55.631Z,31520
2018-08-12T06:31:55.639Z,27840
2018-08-12T06:32:55.651Z,26176
2018-08-12T06:33:55.915Z,23584
2018-08-12T06:34:55.674Z,22240
2018-08-12T06:35:55.932Z,19776
2018-08-12T06:36:55.440Z,21440
2018-08-12T06:37:55.958Z,26976
2018-08-12T06:38:55.965Z,31840
2018-08-12T06:39:56.341Z,33280
2018-08-12T06:40:55.738Z,36512
2018-08-12T06:41:58.690Z,42272
2018-08-12T06:42:55.766Z,40704
2018-08-12T06:43:55.769Z,43488
2018-08-12T06:44:56.033Z,46976
2018-08-12T06:45:56.050Z,35488
2018-08-12T06:46:55.800Z,45344
2018-08-12T06:47:56.075Z,49056
2018-08-12T06:48:59.901Z,48864
2018-08-12T06:49:56.084Z,40384
2018-08-12T06:50:55.599Z,35936
2018-08-12T06:51:56.366Z,49056
2018-08-12T06:52:58.607Z,55840
2018-08-12T06:53:56.130Z,52896
2018-08-12T06:54:56.142Z,51936
2018-08-12T06:55:56.152Z,55488
2018-08-12T06:56:55.907Z,63744
2018-08-12T06:57:56.171Z,68960
2018-08-12T06:58:55.934Z,66176
2018-08-12T06:59:56.192Z,49856
2018-08-12T07:00:55.960Z,49952
2018-08-12T07:01:55.961Z,42240
2018-08-12T07:02:56.231Z,41824
2018-08-12T07:03:56.243Z,39456
2018-08-12T07:05:16.284Z,42176
2018-08-12T07:05:56.007Z,43968
2018-08-12T07:06:56.018Z,49216
2018-08-12T07:07:58.833Z,48992
2018-08-12T07:08:56.292Z,48960
2018-08-12T07:09:56.301Z,34336
2018-08-12T07:10:55.810Z,49536
2018-08-12T07:12:56.083Z,49760
2018-08-12T07:13:56.095Z,52416
2018-08-12T07:14:56.360Z,51360
2018-08-12T07:15:56.373Z,47168
2018-08-12T07:16:56.383Z,47584
2018-08-12T07:17:56.399Z,49248
2018-08-12T07:19:10.831Z,48352
2018-08-12T07:19:56.415Z,47200
2018-08-12T07:20:56.428Z,44000
2018-08-12T07:21:56.444Z,41344
2018-08-12T07:22:56.454Z,38816
2018-08-12T07:23:56.467Z,38656
2018-08-12T07:24:56.932Z,38336
2018-08-12T07:25:56.494Z,38624
2018-08-12T07:26:56.264Z,42272
2018-08-12T07:27:56.266Z,46496
2018-08-12T07:28:56.280Z,49824
2018-08-12T07:29:56.298Z,49952
2018-08-12T07:30:56.557Z,50624
2018-08-12T07:31:56.590Z,48256
2018-08-12T07:32:56.476Z,50528
2018-08-12T07:33:56.601Z,52224
2018-08-12T07:34:56.615Z,53984
2018-08-12T07:35:56.626Z,59872
2018-08-12T07:36:56.390Z,63136
2018-08-12T07:37:56.655Z,59808
2018-08-12T07:38:56.806Z,51520
2018-08-12T07:39:56.432Z,48928
2018-08-12T07:40:56.693Z,53056
2018-08-12T07:41:56.709Z,57952
2018-08-12T07:42:56.725Z,58368
2018-08-12T07:43:56.487Z,55744
2018-08-12T07:44:56.755Z,54560
2018-08-12T07:45:56.768Z,55200
2018-08-12T07:46:56.790Z,58880
2018-08-12T07:47:56.545Z,68256
2018-08-12T07:48:57.159Z,79296
2018-08-12T07:49:56.826Z,84928
2018-08-12T07:50:56.838Z,80768
2018-08-12T07:51:58.133Z,76032
2018-08-12T07:52:56.885Z,75712
2018-08-12T07:53:56.886Z,78208
2018-08-12T07:54:56.924Z,82240
2018-08-12T07:55:56.855Z,86816
2018-08-12T07:56:56.945Z,88224
2018-08-12T07:57:56.705Z,95456
2018-08-12T07:58:56.710Z,100128
2018-08-12T07:59:56.979Z,101600
2018-08-12T08:00:56.741Z,100704
2018-08-12T08:01:59.559Z,100032
2018-08-12T08:02:57.035Z,98592
2018-08-12T08:03:56.834Z,98624
2018-08-12T08:04:57.055Z,95424
2018-08-12T08:05:57.075Z,94944
2018-08-12T08:06:57.093Z,82944
2018-08-12T08:07:57.112Z,77760
2018-08-12T08:08:57.136Z,90048
2018-08-12T08:09:57.139Z,110848
2018-08-12T08:10:56.908Z,118176
2018-08-12T08:12:58.420Z,90944
2018-08-12T08:13:57.213Z,77344
2018-08-12T08:14:57.225Z,73216
2018-08-12T08:15:56.996Z,65824
2018-08-12T08:16:57.008Z,54464
2018-08-12T08:17:57.278Z,54368
2018-08-12T08:18:56.789Z,61696
2018-08-12T08:19:57.883Z,64800
2018-08-12T08:20:57.326Z,63136
2018-08-12T08:21:57.350Z,64896
2018-08-12T08:22:57.366Z,66336
2018-08-12T08:23:57.377Z,68352
2018-08-12T08:24:57.393Z,66208
2018-08-12T08:25:58.016Z,65184
2018-08-12T08:26:57.422Z,66496
2018-08-12T08:27:57.433Z,63744
2018-08-12T08:28:57.454Z,56832
2018-08-12T08:29:57.218Z,54048
2018-08-12T08:30:57.484Z,64448
2018-08-12T08:31:59.734Z,70848
2018-08-12T08:32:57.508Z,71104
2018-08-12T08:33:57.270Z,63072
2018-08-12T08:34:57.291Z,63552
2018-08-12T08:35:57.556Z,68032
2018-08-12T08:36:57.565Z,69792
2018-08-12T08:37:57.408Z,65408
2018-08-12T08:38:57.597Z,63232
2018-08-12T08:39:57.358Z,68160
2018-08-12T08:40:57.621Z,64960
2018-08-12T08:41:57.691Z,55808
2018-08-12T08:42:57.397Z,34880
2018-08-12T08:43:57.508Z,16192
2018-08-12T08:44:57.670Z,11484
2018-08-12T08:45:57.684Z,11048
2018-08-12T08:46:57.706Z,10924
2018-08-12T08:47:57.493Z,10632
2018-08-12T08:48:57.472Z,10424
2018-08-12T08:49:57.585Z,10356
2018-08-12T08:50:57.888Z,10176
2018-08-12T08:51:57.751Z,10148
2018-08-12T08:52:57.509Z,10188
2018-08-12T08:53:57.517Z,10264
2018-08-12T08:54:57.779Z,10364
2018-08-12T08:55:58.647Z,10428
2018-08-12T08:56:57.292Z,10560
2018-08-12T08:57:57.803Z,10776
2018-08-12T08:58:57.810Z,10856
2018-08-12T08:59:57.319Z,10916
2018-08-12T09:00:57.574Z,10968
2018-08-12T09:01:57.836Z,11144
2018-08-12T09:02:57.841Z,11300
2018-08-12T09:03:57.851Z,11260
2018-08-12T09:04:57.351Z,11236
2018-08-12T09:05:57.858Z,10828
2018-08-12T09:06:57.614Z,10660
2018-08-12T09:07:58.260Z,10268
2018-08-12T09:08:58.637Z,9760
2018-08-12T09:09:57.882Z,9424
2018-08-12T09:10:57.892Z,9152
2018-08-12T09:11:57.902Z,8944
2018-08-12T09:12:57.651Z,8844
2018-08-12T09:13:57.654Z,8800
2018-08-12T09:14:57.404Z,8704
2018-08-12T09:15:57.909Z,8804
2018-08-12T09:16:57.661Z,9080
2018-08-12T09:17:57.939Z,9144
2018-08-12T09:18:57.923Z,9212
2018-08-12T09:19:57.938Z,9176
2018-08-12T09:20:57.938Z,8960
2018-08-12T09:21:57.429Z,9024
2018-08-12T09:22:57.977Z,9372
2018-08-12T09:23:57.484Z,9788
2018-08-12T09:24:57.693Z,9672
2018-08-12T09:25:57.954Z,9324
2018-08-12T09:26:57.704Z,9160
2018-08-12T09:27:57.951Z,9160
2018-08-12T09:28:58.202Z,9068
2018-08-12T09:29:57.706Z,9080
2018-08-12T09:30:57.961Z,8892
2018-08-12T09:31:57.960Z,8676
2018-08-12T09:32:57.717Z,8632
2018-08-12T09:33:57.713Z,8664
2018-08-12T09:34:57.969Z,8784
2018-08-12T09:35:57.981Z,8672
2018-08-12T09:36:57.977Z,8368
2018-08-12T09:37:57.728Z,8656
2018-08-12T09:38:57.977Z,9624
2018-08-12T09:39:57.731Z,9988
2018-08-12T09:40:57.740Z,9520
2018-08-12T09:41:58.009Z,9600
2018-08-12T09:42:58.064Z,9744
2018-08-12T09:43:57.745Z,9856
2018-08-12T09:44:57.996Z,9376
2018-08-12T09:45:57.785Z,8888
2018-08-12T09:46:57.997Z,8664
2018-08-12T09:47:58.002Z,8704
2018-08-12T09:48:57.750Z,8556
2018-08-12T09:49:58.006Z,8344
2018-08-12T09:50:58.019Z,8328
2018-08-12T09:51:58.333Z,8256
2018-08-12T09:52:58.017Z,8296
2018-08-12T09:53:57.760Z,8368
2018-08-12T09:54:58.012Z,8392
2018-08-12T09:55:58.015Z,8360
2018-08-12T09:56:57.770Z,8348
2018-08-12T09:57:58.019Z,8360
2018-08-12T09:58:57.778Z,8276
2018-08-12T09:59:58.094Z,8228
2018-08-12T10:00:58.036Z,8256
2018-08-12T10:01:57.779Z,8288
2018-08-12T10:02:57.780Z,8320
2018-08-12T10:03:57.780Z,8348
2018-08-12T10:04:58.044Z,8296
2018-08-12T10:05:58.033Z,8248
2018-08-12T10:06:57.783Z,8216
2018-08-12T10:07:58.043Z,8264
2018-08-12T10:08:58.038Z,8240
2018-08-12T10:09:57.788Z,8136
2018-08-12T10:10:57.538Z,8120
2018-08-12T10:11:57.792Z,8172
2018-08-12T10:12:57.800Z,8132
2018-08-12T10:13:58.048Z,8044
2018-08-12T10:14:58.047Z,8060
2018-08-12T10:15:58.069Z,8156
2018-08-12T10:16:58.051Z,8176
2018-08-12T10:17:57.811Z,8128
2018-08-12T10:18:57.805Z,8052
2018-08-12T10:20:57.816Z,7992
2018-08-12T10:21:59.084Z,7960
2018-08-12T10:22:58.070Z,7936
2018-08-12T10:23:58.069Z,7920
2018-08-12T10:24:58.075Z,7976
2018-08-12T10:25:58.066Z,7976
2018-08-12T10:26:58.069Z,7952
2018-08-12T10:27:58.081Z,7940
2018-08-12T10:28:57.822Z,7920
2018-08-12T10:29:58.074Z,7868
2018-08-12T10:30:58.323Z,7884
2018-08-12T10:31:58.092Z,7912
2018-08-12T10:32:57.827Z,7872
2018-08-12T10:33:58.087Z,7772
2018-08-12T10:34:57.830Z,7720
2018-08-12T10:35:58.090Z,7912
2018-08-12T10:36:58.083Z,8040
2018-08-12T10:37:58.084Z,8164
2018-08-12T10:38:58.088Z,8340
2018-08-12T10:39:57.591Z,8256
2018-08-12T10:40:58.091Z,8160
2018-08-12T10:41:58.097Z,7992
2018-08-12T10:42:57.844Z,7844
2018-08-12T10:43:57.861Z,7896
2018-08-12T10:44:57.847Z,8084
2018-08-12T10:45:58.100Z,8268
2018-08-12T10:46:58.107Z,8396
2018-08-12T10:47:58.116Z,8524
2018-08-12T10:48:58.167Z,8532
2018-08-12T10:49:58.108Z,8448
2018-08-12T10:50:58.716Z,8532
2018-08-12T10:51:58.115Z,8548
2018-08-12T10:52:57.866Z,8568
2018-08-12T10:53:58.119Z,8624
2018-08-12T10:54:57.868Z,8552
2018-08-12T10:55:57.616Z,8452
2018-08-12T10:56:57.877Z,8392
2018-08-12T10:57:58.123Z,8424
2018-08-12T10:58:57.875Z,8392
2018-08-12T10:59:57.877Z,8396
2018-08-12T11:00:57.881Z,8404
2018-08-12T11:01:57.880Z,8472
2018-08-12T11:02:57.632Z,8580
2018-08-12T11:03:57.882Z,8648
2018-08-12T11:04:58.152Z,8552
2018-08-12T11:05:57.891Z,8560
2018-08-12T11:06:57.636Z,8620
2018-08-12T11:07:58.150Z,8728
2018-08-12T11:08:58.149Z,8808
2018-08-12T11:09:58.156Z,8808
2018-08-12T11:10:58.150Z,8744
2018-08-12T11:11:57.903Z,8660
2018-08-12T11:12:58.157Z,8620
2018-08-12T11:13:58.175Z,8612
2018-08-12T11:14:57.908Z,8620
2018-08-12T11:15:58.164Z,8588
2018-08-12T11:16:57.912Z,8676
2018-08-12T11:17:58.163Z,8724
2018-08-12T11:18:58.167Z,8840
2018-08-12T11:19:57.925Z,8852
2018-08-12T11:20:57.670Z,8876
2018-08-12T11:21:58.178Z,8900
2018-08-12T11:22:58.198Z,8804
2018-08-12T11:23:58.178Z,8608
2018-08-12T11:24:58.180Z,8296
2018-08-12T11:25:57.933Z,8128
2018-08-12T11:26:58.185Z,8176
2018-08-12T11:27:58.185Z,8208
2018-08-12T11:28:57.687Z,8112
2018-08-12T11:29:57.945Z,7948
2018-08-12T11:30:57.947Z,7728
2018-08-12T11:31:58.229Z,7524
2018-08-12T11:32:58.200Z,7308
2018-08-12T11:33:57.948Z,7120
2018-08-12T11:34:58.552Z,7004
2018-08-12T11:35:58.207Z,6956
2018-08-12T11:36:57.966Z,6960
2018-08-12T11:37:58.213Z,6980
2018-08-12T11:38:57.962Z,7000
2018-08-12T11:39:58.214Z,6988
2018-08-12T11:40:58.217Z,6956
2018-08-12T11:41:58.229Z,6932
2018-08-12T11:42:57.972Z,6892
2018-08-12T11:43:58.232Z,6828
2018-08-12T11:44:58.227Z,6756
2018-08-12T11:45:58.231Z,6688
2018-08-12T11:46:58.235Z,6624
2018-08-12T11:47:58.238Z,6576
2018-08-12T11:48:57.987Z,6532
2018-08-12T11:49:57.988Z,6480
2018-08-12T11:50:58.246Z,6400
2018-08-12T11:51:58.247Z,6332
2018-08-12T11:52:57.995Z,6316
2018-08-12T11:53:58.000Z,6288
2018-08-12T11:54:58.252Z,6224
2018-08-12T11:55:58.256Z,6104
2018-08-12T11:56:58.434Z,6000
2018-08-12T11:57:58.263Z,5924
2018-08-12T11:58:58.262Z,5848
2018-08-12T11:59:58.015Z,5784
2018-08-12T12:00:58.017Z,5736
2018-08-12T12:01:58.268Z,5676
2018-08-12T12:02:58.282Z,5612
2018-08-12T12:03:58.281Z,5548
2018-08-12T12:04:58.287Z,5492
2018-08-12T12:05:58.028Z,5440
2018-08-12T12:06:58.292Z,5416
2018-08-12T12:07:58.034Z,5368
2018-08-12T12:08:58.285Z,5384
2018-08-12T12:09:58.284Z,5380
2018-08-12T12:10:58.038Z,5356
2018-08-12T12:11:58.290Z,5352
2018-08-12T12:12:58.299Z,5324
2018-08-12T12:13:58.301Z,5284
2018-08-12T12:14:58.363Z,5248
2018-08-12T12:15:58.092Z,5212
2018-08-12T12:16:57.806Z,5176
2018-08-12T12:17:58.308Z,5152
2018-08-12T12:18:58.305Z,5112
2018-08-12T12:19:58.058Z,5068
2018-08-12T12:20:58.309Z,5016
2018-08-12T12:21:58.094Z,4976
2018-08-12T12:22:58.317Z,4948
2018-08-12T12:23:58.313Z,4940
2018-08-12T12:24:58.067Z,4948
2018-08-12T12:25:58.500Z,4960
2018-08-12T12:26:58.070Z,4984
2018-08-12T12:27:58.326Z,5004
2018-08-12T12:28:58.081Z,5012
2018-08-12T12:29:58.341Z,5016
2018-08-12T12:30:58.334Z,5024
2018-08-12T12:31:57.827Z,5032
2018-08-12T12:32:58.388Z,5040
2018-08-12T12:33:58.082Z,5048
2018-08-12T12:34:58.334Z,5068
2018-08-12T12:35:58.092Z,5076
2018-08-12T12:36:58.341Z,5080
2018-08-12T12:37:58.093Z,5080
2018-08-12T12:38:58.342Z,5100
2018-08-12T12:39:58.342Z,5140
2018-08-12T12:40:58.350Z,5124
2018-08-12T12:41:58.098Z,5120
2018-08-12T12:42:58.811Z,5160
2018-08-12T12:43:58.353Z,5168
2018-08-12T12:44:58.106Z,5172
2018-08-12T12:45:58.106Z,5184
2018-08-12T12:46:58.117Z,5192
2018-08-12T12:47:57.858Z,5192
2018-08-12T12:48:58.359Z,5172
2018-08-12T12:49:58.366Z,5144
2018-08-12T12:50:58.121Z,5140
2018-08-12T12:51:58.367Z,5136
2018-08-12T12:52:58.373Z,5132
2018-08-12T12:53:58.379Z,5136
2018-08-12T12:54:58.130Z,5136
2018-08-12T12:55:58.375Z,5132
2018-08-12T12:56:58.129Z,5116
2018-08-12T12:57:58.450Z,5104
2018-08-12T12:58:58.383Z,5084
2018-08-12T12:59:58.383Z,5088
2018-08-12T13:00:58.385Z,5092
2018-08-12T13:01:58.384Z,5092
2018-08-12T13:02:58.391Z,5108
2018-08-12T13:03:58.387Z,5100
2018-08-12T13:04:58.387Z,5080
2018-08-12T13:05:58.393Z,5076
2018-08-12T13:06:58.391Z,5060
2018-08-12T13:07:58.405Z,5056
2018-08-12T13:08:58.394Z,5036
2018-08-12T13:09:58.410Z,5020
2018-08-12T13:10:58.146Z,5016
2018-08-12T13:11:58.155Z,5028
2018-08-12T13:12:58.162Z,5020
2018-08-12T13:13:58.155Z,5008
2018-08-12T13:14:58.153Z,4992
2018-08-12T13:15:58.414Z,4976
2018-08-12T13:16:58.407Z,4964
2018-08-12T13:17:58.158Z,4936
2018-08-12T13:18:58.353Z,4912
2018-08-12T13:19:57.909Z,4884
2018-08-12T13:20:58.422Z,4872
2018-08-12T13:21:58.165Z,4844
2018-08-12T13:22:58.419Z,4824
2018-08-12T13:23:58.424Z,4792
2018-08-12T13:24:58.549Z,4764
2018-08-12T13:25:58.422Z,4740
2018-08-12T13:26:58.424Z,4724
2018-08-12T13:27:58.432Z,4712
2018-08-12T13:28:58.175Z,4700
2018-08-12T13:29:58.432Z,4680
2018-08-12T13:30:58.180Z,4664
2018-08-12T13:31:58.484Z,4648
2018-08-12T13:32:58.514Z,4632
2018-08-12T13:33:58.435Z,4608
2018-08-12T13:34:58.193Z,4584